Time;durP1;ratioP1;P1;durP2;ratioP2;P2;SDS_P1;SDS_P2;PMS_P1;PMS_P2;Temp;Humidity;BMP_temperature;BMP_pressure;BME280_temperature;BME280_humidity;BME280_pressure;Samples;Min_cycle;Max_cycle;Signal;HPM_P1;HPM_P2
2022/05/22 00:01:36;;;;;;;10.32;4.25;;;;;;;12.89;83.00;95742.13;5058981;28;20029;-77
2022/05/22 00:04:02;;;;;;;8.88;4.60;;;;;;;13.03;82.42;95731.69;5064218;28;20041;-76
2022/05/22 00:06:29;;;;;;;9.20;4.57;;;;;;;12.99;82.77;95737.53;5050464;28;20104;-76
2022/05/22 00:08:55;;;;;;;8.68;4.43;;;;;;;12.96;82.88;95732.81;5048992;28;20406;-75
2022/05/22 00:11:22;;;;;;;9.15;4.75;;;;;;;12.98;82.62;95735.94;5061580;28;20047;-76
2022/05/22 00:13:47;;;;;;;7.15;4.40;;;;;;;12.96;83.15;95738.09;5069310;28;20048;-76
2022/05/22 00:18:57;;;;;;;8.30;4.25;;;;;;;12.84;83.66;95724.47;5071038;28;20056;-77
2022/05/22 00:21:23;;;;;;;6.72;4.32;;;;;;;12.77;84.86;95729.28;5073439;28;20044;-77
2022/05/22 00:23:48;;;;;;;10.85;4.40;;;;;;;12.71;84.54;95725.13;5057308;28;20041;-77
2022/05/22 00:26:14;;;;;;;6.38;4.18;;;;;;;12.76;84.50;95727.72;5071152;28;20747;-77
2022/05/22 00:28:39;;;;;;;7.95;4.25;;;;;;;12.76;85.00;95733.00;5072525;28;20524;-77
2022/05/22 00:31:05;;;;;;;10.05;4.68;;;;;;;12.69;84.90;95724.63;5068844;28;20045;-76
2022/05/22 00:33:30;;;;;;;13.15;5.00;;;;;;;12.72;84.78;95726.69;5069271;28;20051;-76
2022/05/22 00:35:56;;;;;;;10.18;4.07;;;;;;;12.64;85.49;95730.72;5077374;28;20056;-77
2022/05/22 00:38:21;;;;;;;7.53;4.30;;;;;;;12.48;87.05;95711.56;5066998;28;20041;-77
2022/05/22 00:40:47;;;;;;;6.38;4.53;;;;;;;12.44;86.94;95721.91;5061006;28;20037;-76
2022/05/22 00:43:25;;;;;;;6.53;3.85;;;;;;;12.38;87.54;95722.19;5063082;28;20575;-77
2022/05/22 00:45:52;;;;;;;9.02;3.95;;;;;;;12.34;87.94;95707.97;5063428;28;20041;-77
2022/05/22 00:48:17;;;;;;;10.02;3.90;;;;;;;12.23;87.79;95692.22;5061151;28;20033;-77
2022/05/22 00:50:43;;;;;;;7.22;4.38;;;;;;;12.32;87.71;95696.91;5057672;28;20049;-77
2022/05/22 00:53:08;;;;;;;6.00;3.78;;;;;;;12.34;87.08;95695.59;5064476;28;20047;-76
2022/05/22 00:55:35;;;;;;;10.38;4.25;;;;;;;12.23;88.22;95689.59;5071747;28;20032;-76
2022/05/22 00:58:12;;;;;;;6.57;4.20;;;;;;;12.18;88.27;95694.88;5067771;28;20052;-76
2022/05/22 01:00:37;;;;;;;9.80;4.32;;;;;;;12.07;89.05;95690.75;5068588;28;20037;-77
2022/05/22 01:05:51;;;;;;;10.02;4.20;;;;;;;11.93;89.99;95686.06;5066004;28;20125;-77
2022/05/22 01:08:16;;;;;;;11.70;4.00;;;;;;;11.92;89.88;95695.03;5075900;28;20045;-77
2022/05/22 01:11:08;;;;;;;8.90;4.00;;;;;;;11.88;90.41;95699.28;5067665;28;20043;-77
2022/05/22 01:13:38;;;;;;;6.15;3.95;;;;;;;11.83;90.04;95695.88;5063518;28;20118;-77
2022/05/22 01:16:04;;;;;;;6.43;4.13;;;;;;;11.80;90.98;95689.31;5067105;28;20111;-77
2022/05/22 01:18:39;;;;;;;7.28;4.15;;;;;;;11.74;90.84;95687.75;5054158;28;20045;-77
2022/05/22 01:21:10;;;;;;;7.00;4.25;;;;;;;11.77;91.56;95687.22;5058815;28;22457;-77
2022/05/22 01:23:36;;;;;;;6.95;4.47;;;;;;;11.73;91.96;95691.44;5056075;28;20053;-77
2022/05/22 01:26:01;;;;;;;6.50;4.15;;;;;;;11.69;91.14;95700.94;5070310;28;20050;-76
2022/05/22 01:28:27;;;;;;;7.50;4.15;;;;;;;11.65;92.15;95705.19;5062205;28;20037;-76
2022/05/22 01:30:52;;;;;;;6.78;4.20;;;;;;;11.59;92.28;95707.06;5052781;28;20098;-75
2022/05/22 01:33:17;;;;;;;8.25;4.32;;;;;;;11.63;91.51;95705.47;5051679;28;20094;-76
2022/05/22 01:35:46;;;;;;;6.45;4.00;;;;;;;11.69;91.00;95716.78;5059848;28;20040;-76
2022/05/22 01:38:12;;;;;;;7.40;4.20;;;;;;;11.74;91.41;95714.13;5070783;28;20104;-76
2022/05/22 01:40:37;;;;;;;5.68;3.83;;;;;;;11.72;90.94;95710.94;5061782;28;20097;-76
2022/05/22 01:43:04;;;;;;;5.30;4.10;;;;;;;11.63;92.77;95707.31;5063144;28;20453;-76
2022/05/22 01:45:30;;;;;;;8.25;4.72;;;;;;;11.56;93.65;95703.09;5051501;28;20047;-76
2022/05/22 01:47:56;;;;;;;8.43;4.43;;;;;;;11.55;93.18;95704.19;5054356;28;20045;-76
2022/05/22 01:50:22;;;;;;;7.05;4.75;;;;;;;11.48;93.09;95701.06;5066486;28;20166;-76
2022/05/22 01:52:47;;;;;;;8.02;4.45;;;;;;;11.50;92.61;95698.94;5071511;28;20045;-76
2022/05/22 01:55:13;;;;;;;8.85;4.30;;;;;;;11.47;93.02;95694.19;5059847;28;20037;-76
2022/05/22 01:57:39;;;;;;;7.90;4.60;;;;;;;11.45;93.22;95688.41;5071325;28;20047;-76
2022/05/22 02:00:09;;;;;;;8.18;4.68;;;;;;;11.31;94.08;95684.78;5063296;28;20033;-76
2022/05/22 02:02:34;;;;;;;7.15;4.43;;;;;;;11.20;94.98;95692.69;5067101;28;20045;-77
2022/05/22 02:05:02;;;;;;;7.70;5.18;;;;;;;11.18;95.88;95686.16;5068894;28;20041;-77
2022/05/22 02:10:13;;;;;;;10.65;5.28;;;;;;;11.08;96.57;95682.47;5060702;28;20391;-77
2022/05/22 02:12:38;;;;;;;7.32;5.15;;;;;;;11.04;96.43;95670.13;5056552;28;20045;-77
2022/05/22 02:15:05;;;;;;;10.10;5.03;;;;;;;10.98;96.67;95665.94;5062157;28;20556;-76
2022/05/22 02:17:31;;;;;;;8.48;5.25;;;;;;;11.01;97.04;95665.38;5056185;28;20527;-76
2022/05/22 02:19:57;;;;;;;8.35;4.90;;;;;;;10.92;96.35;95659.88;5064482;28;20036;-76
2022/05/22 02:22:23;;;;;;;8.80;4.78;;;;;;;10.89;96.65;95658.56;5075047;28;20037;-76
2022/05/22 02:24:50;;;;;;;8.73;5.13;;;;;;;10.95;97.09;95661.16;5058050;28;20520;-76
2022/05/22 02:27:16;;;;;;;8.52;4.85;;;;;;;10.91;96.58;95661.72;5070416;28;20048;-76
2022/05/22 02:29:41;;;;;;;9.38;4.90;;;;;;;10.85;96.30;95665.41;5060187;28;20490;-76
2022/05/22 02:32:07;;;;;;;7.60;4.75;;;;;;;10.77;97.15;95665.94;5057832;28;20071;-76
2022/05/22 02:34:33;;;;;;;8.75;5.40;;;;;;;10.73;97.44;95654.38;5056359;28;20107;-76
2022/05/22 02:36:59;;;;;;;9.40;5.13;;;;;;;10.64;97.19;95655.97;5049848;28;20091;-76
2022/05/22 02:39:26;;;;;;;11.90;5.47;;;;;;;10.57;97.39;95657.06;5058233;28;20777;-76
2022/05/22 02:41:51;;;;;;;9.93;5.50;;;;;;;10.50;97.96;95656.53;5064949;28;20045;-77
2022/05/22 02:44:17;;;;;;;7.90;5.30;;;;;;;10.44;97.77;95649.69;5071911;28;20045;-77
2022/05/22 02:46:43;;;;;;;9.48;5.07;;;;;;;10.54;97.27;95647.06;5066873;28;20043;-77
2022/05/22 02:49:09;;;;;;;10.55;5.50;;;;;;;10.33;98.37;95651.50;5055016;28;20049;-77
2022/05/22 02:51:35;;;;;;;9.85;5.50;;;;;;;10.34;99.35;95649.69;5053979;28;20047;-76
2022/05/22 02:54:01;;;;;;;9.10;5.07;;;;;;;10.40;98.60;95646.00;5052437;28;20072;-76
2022/05/22 02:56:27;;;;;;;8.77;5.30;;;;;;;10.36;99.09;95639.72;5064521;28;20036;-76
2022/05/22 02:58:53;;;;;;;11.45;5.63;;;;;;;10.21;99.46;95641.25;5067564;28;20052;-76
2022/05/22 03:01:19;;;;;;;10.23;5.40;;;;;;;10.19;98.98;95640.72;5056500;28;20114;-76
2022/05/22 03:03:44;;;;;;;10.00;5.68;;;;;;;10.13;99.89;95652.28;5065029;28;20044;-76
2022/05/22 03:08:54;;;;;;;7.85;5.70;;;;;;;10.06;98.51;95651.75;5070552;28;20040;-78
2022/05/22 03:11:20;;;;;;;11.48;5.85;;;;;;;10.04;99.11;95653.84;5059077;28;20845;-78
2022/05/22 03:13:45;;;;;;;8.68;5.65;;;;;;;10.08;98.42;95654.91;5074213;28;20644;-77
2022/05/22 03:16:11;;;;;;;15.73;5.90;;;;;;;10.08;98.05;95654.13;5066001;28;20047;-78
2022/05/22 03:18:37;;;;;;;8.43;5.53;;;;;;;10.06;98.56;95651.75;5056798;28;20048;-78
2022/05/22 03:21:02;;;;;;;9.35;5.47;;;;;;;10.09;98.05;95655.72;5060566;28;20051;-76
2022/05/22 03:23:28;;;;;;;7.78;5.10;;;;;;;10.07;98.86;95653.34;5063169;28;20040;-76
2022/05/22 03:25:53;;;;;;;8.48;5.57;;;;;;;10.08;98.31;95654.13;5050519;28;20044;-76
2022/05/22 03:28:23;;;;;;;10.77;6.03;;;;;;;10.09;98.50;95645.97;5058358;28;20071;-76
2022/05/22 03:30:49;;;;;;;10.85;5.60;;;;;;;10.01;98.15;95649.13;5054765;28;20048;-76
2022/05/22 03:33:15;;;;;;;10.02;5.68;;;;;;;9.89;99.68;95644.91;5064334;28;20488;-76
2022/05/22 03:35:41;;;;;;;9.55;5.50;;;;;;;9.85;100.00;95641.22;5051279;28;20082;-76
2022/05/22 03:38:06;;;;;;;10.13;5.78;;;;;;;9.79;100.00;95637.00;5053103;28;20044;-78
2022/05/22 03:40:32;;;;;;;8.63;5.97;;;;;;;9.69;100.00;95632.50;5055309;28;20045;-77
2022/05/22 03:42:59;;;;;;;11.20;7.07;;;;;;;9.74;100.00;95637.00;5074546;28;20041;-78
2022/05/22 03:45:25;;;;;;;10.20;6.03;;;;;;;9.79;100.00;95638.84;5064825;28;20115;-76
2022/05/22 03:47:51;;;;;;;9.95;6.05;;;;;;;9.77;100.00;95644.38;5053189;28;20044;-77
2022/05/22 03:50:16;;;;;;;12.07;5.80;;;;;;;9.81;100.00;95629.66;5057634;28;20092;-77
2022/05/22 03:52:44;;;;;;;11.20;6.00;;;;;;;9.81;100.00;95634.91;5075363;28;20037;-77
2022/05/22 03:55:14;;;;;;;10.13;6.18;;;;;;;9.83;100.00;95627.56;5072358;28;20082;-77
2022/05/22 03:57:40;;;;;;;8.93;5.93;;;;;;;9.86;100.00;95631.50;5066617;28;20105;-77
2022/05/22 04:00:09;;;;;;;10.23;6.32;;;;;;;9.86;100.00;95632.28;5053404;28;20049;-76
2022/05/22 04:02:35;;;;;;;12.52;6.55;;;;;;;9.85;100.00;95620.19;5072077;28;20052;-77
2022/05/22 04:05:02;;;;;;;11.63;6.40;;;;;;;9.83;100.00;95621.53;5068413;28;20052;-77
2022/05/22 04:07:28;;;;;;;10.98;6.28;;;;;;;9.86;100.00;95627.03;5052657;28;20045;-77
2022/05/22 04:09:55;;;;;;;14.43;6.22;;;;;;;9.88;100.00;95630.19;5062493;28;20048;-77
2022/05/22 04:12:21;;;;;;;11.85;6.45;;;;;;;9.91;100.00;95622.84;5070784;28;20036;-77
2022/05/22 04:14:46;;;;;;;16.48;6.45;;;;;;;9.96;100.00;95625.47;5071718;28;20051;-77
2022/05/22 04:17:12;;;;;;;12.43;6.15;;;;;;;10.05;100.00;95629.94;5071754;28;20048;-76
2022/05/22 04:19:38;;;;;;;15.57;6.60;;;;;;;10.16;100.00;95628.09;5054350;28;20112;-77
2022/05/22 04:22:04;;;;;;;11.90;6.50;;;;;;;10.25;100.00;95627.56;5064644;28;20056;-77
2022/05/22 04:27:14;;;;;;;11.27;7.55;;;;;;;10.38;100.00;95640.22;5056228;28;20045;-77
2022/05/22 04:29:41;;;;;;;10.35;6.63;;;;;;;10.43;100.00;95629.69;5069292;28;20596;-77
2022/05/22 04:32:07;;;;;;;11.20;7.38;;;;;;;10.53;100.00;95629.69;5061227;28;20052;-76
2022/05/22 04:34:33;;;;;;;11.00;7.00;;;;;;;10.62;100.00;95637.06;5061511;28;20033;-76
2022/05/22 04:36:58;;;;;;;13.35;7.53;;;;;;;10.58;100.00;95632.28;5062270;28;20074;-77
2022/05/22 04:39:24;;;;;;;16.45;7.50;;;;;;;10.72;100.00;95637.03;5061643;28;20268;-77
2022/05/22 04:41:49;;;;;;;12.82;7.20;;;;;;;10.78;100.00;95633.31;5054846;28;20701;-78
2022/05/22 04:44:15;;;;;;;14.30;7.50;;;;;;;10.80;99.61;95633.81;5054761;28;20520;-77
2022/05/22 04:46:40;;;;;;;11.23;7.25;;;;;;;10.85;99.67;95635.69;5062830;28;20052;-77
2022/05/22 04:49:06;;;;;;;14.25;7.32;;;;;;;10.92;99.67;95636.97;5057834;28;20040;-77
2022/05/22 04:51:31;;;;;;;12.02;7.18;;;;;;;10.94;99.14;95638.56;5062999;28;20047;-78
2022/05/22 04:53:57;;;;;;;14.85;7.68;;;;;;;11.00;98.48;95642.72;5065954;28;20040;-77
2022/05/22 04:56:23;;;;;;;12.43;7.03;;;;;;;11.09;99.38;95641.91;5069571;28;20434;-84
2022/05/22 04:58:48;;;;;;;10.65;6.88;;;;;;;11.18;99.05;95639.50;5061648;28;20048;-82
2022/05/22 05:01:15;;;;;;;12.75;7.30;;;;;;;11.25;96.64;95640.00;5063323;28;20642;-78
2022/05/22 05:03:41;;;;;;;11.70;7.25;;;;;;;11.33;96.33;95638.66;5062829;28;20041;-78
2022/05/22 05:06:06;;;;;;;13.30;7.53;;;;;;;11.45;96.63;95622.53;5065084;28;20043;-77
2022/05/22 05:08:32;;;;;;;14.95;7.80;;;;;;;11.52;95.79;95620.41;5066708;28;20075;-77
2022/05/22 05:10:59;;;;;;;14.50;7.22;;;;;;;11.73;94.49;95622.91;5063332;28;20040;-78
2022/05/22 05:13:26;;;;;;;13.38;7.28;;;;;;;11.80;93.44;95618.09;5061964;28;20039;-80
2022/05/22 05:16:10;;;;;;;15.43;7.40;;;;;;;11.99;92.71;95612.22;5057798;28;20116;-77
2022/05/22 05:18:36;;;;;;;14.30;7.93;;;;;;;12.06;91.65;95610.03;5059758;28;20059;-79
2022/05/22 05:21:08;;;;;;;10.90;6.70;;;;;;;12.08;90.99;95602.63;5063979;28;20067;-81
2022/05/22 05:23:34;;;;;;;12.52;7.00;;;;;;;12.22;91.43;95603.56;5067611;28;20170;-80
2022/05/22 05:26:00;;;;;;;13.57;6.63;;;;;;;12.41;90.63;95605.53;5068573;28;20056;-82
2022/05/22 05:28:26;;;;;;;15.15;7.13;;;;;;;12.45;89.13;95601.25;5054500;28;20268;-80
2022/05/22 05:30:52;;;;;;;12.35;7.35;;;;;;;12.45;89.20;95593.34;5062236;28;20487;-78
2022/05/22 05:33:18;;;;;;;13.15;7.25;;;;;;;12.52;88.59;95612.28;5065164;28;20037;-81
2022/05/22 05:35:43;;;;;;;11.32;6.38;;;;;;;12.51;88.23;95605.41;5055442;28;20572;-81
2022/05/22 05:38:09;;;;;;;13.38;7.47;;;;;;;12.55;87.90;95603.81;5065489;28;20551;-78
2022/05/22 05:40:35;;;;;;;12.93;7.10;;;;;;;12.57;88.18;95609.59;5068351;28;20043;-76
2022/05/22 05:43:01;;;;;;;10.90;6.00;;;;;;;12.63;88.78;95611.13;5071661;28;20159;-83
2022/05/22 05:45:27;;;;;;;12.63;6.18;;;;;;;12.69;88.66;95601.28;5054219;28;20115;-77
2022/05/22 05:47:53;;;;;;;10.73;6.07;;;;;;;12.87;86.51;95591.06;5059127;28;20072;-77
2022/05/22 05:50:21;;;;;;;11.23;5.85;;;;;;;13.16;81.85;95593.66;5071814;28;20555;-82
2022/05/22 05:52:50;;;;;;;9.80;5.78;;;;;;;13.17;83.98;95595.19;5072494;28;20507;-77
2022/05/22 05:55:17;;;;;;;11.13;6.63;;;;;;;13.36;81.79;95597.13;5053221;28;20045;-78
2022/05/22 05:57:42;;;;;;;12.02;6.00;;;;;;;13.34;82.97;95600.81;5067371;28;20044;-76
2022/05/22 06:00:10;;;;;;;11.18;5.13;;;;;;;13.50;79.71;95597.97;5063509;28;20492;-77
2022/05/22 06:02:36;;;;;;;11.18;4.70;;;;;;;13.75;75.30;95593.41;5070568;28;20090;-77
2022/05/22 06:05:03;;;;;;;12.27;4.80;;;;;;;13.84;74.03;95581.09;5058968;28;20037;-76
2022/05/22 06:07:28;;;;;;;7.75;4.68;;;;;;;13.93;73.66;95574.06;5054483;28;20086;-78
2022/05/22 06:09:54;;;;;;;6.90;4.40;;;;;;;14.03;73.24;95568.63;5061415;28;20120;-79
2022/05/22 06:12:19;;;;;;;11.80;4.85;;;;;;;14.16;71.32;95566.31;5068900;28;20048;-77
2022/05/22 06:14:46;;;;;;;14.10;5.60;;;;;;;14.19;71.01;95571.03;5070314;28;20044;-77
2022/05/22 06:17:13;;;;;;;9.23;4.72;;;;;;;14.19;71.13;95560.44;5060159;28;20032;-77
2022/05/22 06:19:55;;;;;;;8.02;4.63;;;;;;;14.30;69.80;95561.84;5054259;28;20121;-77
2022/05/22 06:22:22;;;;;;;9.05;4.35;;;;;;;14.25;70.80;95564.59;5059639;28;20665;-77
2022/05/22 06:24:48;;;;;;;9.63;4.63;;;;;;;14.31;71.63;95566.06;5062914;28;20049;-77
2022/05/22 06:27:14;;;;;;;7.38;4.10;;;;;;;14.32;70.67;95551.75;5058663;28;20102;-76
2022/05/22 06:29:41;;;;;;;12.20;4.65;;;;;;;14.34;72.79;95552.25;5055184;28;20041;-77
2022/05/22 06:32:09;;;;;;;9.55;4.30;;;;;;;14.52;70.10;95557.75;5058323;28;20501;-76
2022/05/22 06:34:36;;;;;;;10.15;4.78;;;;;;;14.68;68.80;95545.84;5066761;28;20568;-80
2022/05/22 06:37:03;;;;;;;9.98;4.70;;;;;;;14.75;69.20;95542.00;5065247;28;20041;-77
2022/05/22 06:42:15;;;;;;;9.95;4.65;;;;;;;14.75;66.60;95536.69;5068716;28;20036;-76
2022/05/22 06:44:41;;;;;;;10.88;4.38;;;;;;;14.87;68.15;95532.47;5075004;28;20044;-76
2022/05/22 06:47:07;;;;;;;7.70;4.43;;;;;;;15.02;68.10;95541.97;5071004;28;20041;-77
2022/05/22 06:49:32;;;;;;;8.10;4.47;;;;;;;14.97;68.53;95536.78;5055177;28;20075;-85
2022/05/22 06:51:58;;;;;;;8.35;4.05;;;;;;;15.09;67.17;95533.63;5051090;28;20045;-77
2022/05/22 06:54:23;;;;;;;11.75;3.92;;;;;;;15.11;68.79;95536.75;5053635;28;20053;-78
2022/05/22 06:56:49;;;;;;;8.07;4.15;;;;;;;15.28;67.79;95530.84;5065922;28;20040;-75
2022/05/22 06:59:15;;;;;;;10.05;4.28;;;;;;;15.20;67.64;95534.19;5063469;28;20052;-77
2022/05/22 07:01:40;;;;;;;10.52;3.85;;;;;;;15.13;68.35;95533.81;5055537;28;20048;-79
2022/05/22 07:04:06;;;;;;;11.23;3.75;;;;;;;15.29;65.91;95521.81;5060771;28;20045;-75
2022/05/22 07:06:31;;;;;;;7.80;3.85;;;;;;;15.20;66.21;95518.28;5060695;28;20037;-76
2022/05/22 07:08:57;;;;;;;8.90;3.67;;;;;;;15.22;67.00;95516.13;5069105;28;20065;-76
2022/05/22 07:11:38;;;;;;;9.13;3.67;;;;;;;15.24;67.87;95519.25;5063220;28;20048;-75
2022/05/22 07:14:09;;;;;;;11.05;4.03;;;;;;;15.37;65.95;95513.16;5058319;28;20044;-75
2022/05/22 07:16:36;;;;;;;9.00;3.83;;;;;;;15.60;65.44;95513.16;5052082;28;20486;-77
2022/05/22 07:19:03;;;;;;;6.60;3.80;;;;;;;15.90;63.45;95518.84;5052727;28;20051;-78
2022/05/22 07:21:28;;;;;;;9.50;4.07;;;;;;;15.81;63.03;95525.97;5050816;28;20036;-77
2022/05/22 07:23:54;;;;;;;8.05;3.80;;;;;;;16.08;62.49;95515.22;5057545;28;20433;-75
2022/05/22 07:26:21;;;;;;;7.45;3.83;;;;;;;16.10;61.05;95513.06;5052938;28;20544;-75
2022/05/22 07:28:47;;;;;;;5.53;3.53;;;;;;;15.84;62.42;95504.13;5058894;28;20051;-75
2022/05/22 07:31:20;;;;;;;7.72;3.85;;;;;;;15.80;63.47;95508.47;5063398;28;20040;-77
2022/05/22 07:33:45;;;;;;;11.00;3.53;;;;;;;15.88;63.35;95510.41;5061504;28;20098;-78
2022/05/22 07:36:11;;;;;;;11.13;3.40;;;;;;;16.15;62.93;95508.66;5051431;28;20045;-75
2022/05/22 07:38:37;;;;;;;9.88;3.30;;;;;;;16.24;61.23;95501.56;5049837;28;20064;-75
2022/05/22 07:41:02;;;;;;;7.60;3.53;;;;;;;16.25;62.24;95505.78;5049817;28;20037;-76
2022/05/22 07:43:27;;;;;;;7.35;3.42;;;;;;;16.05;64.27;95502.53;5053839;28;20041;-75
2022/05/22 07:45:56;;;;;;;7.13;3.55;;;;;;;16.43;60.51;95504.78;5053777;28;20040;-73
2022/05/22 07:48:22;;;;;;;6.88;3.50;;;;;;;16.61;56.29;95510.13;5056489;28;20683;-73
2022/05/22 07:50:54;;;;;;;8.18;3.00;;;;;;;16.42;57.96;95500.53;5069448;28;20044;-73
2022/05/22 07:53:20;;;;;;;7.95;3.15;;;;;;;16.45;58.90;95491.94;5068765;28;20395;-73
2022/05/22 07:55:46;;;;;;;8.68;3.35;;;;;;;16.35;62.14;95489.56;5068805;28;20056;-72
2022/05/22 07:58:11;;;;;;;7.72;2.80;;;;;;;16.43;60.69;95488.84;5048940;28;20049;-73
2022/05/22 08:00:37;;;;;;;6.45;3.10;;;;;;;16.83;58.43;95495.19;5047952;28;20037;-73
2022/05/22 08:03:09;;;;;;;5.53;3.13;;;;;;;16.70;56.72;95489.69;5049591;28;20060;-73
2022/05/22 08:05:35;;;;;;;9.63;3.13;;;;;;;16.35;56.73;95484.25;5049647;28;20417;-73
2022/05/22 08:08:01;;;;;;;6.53;2.97;;;;;;;16.52;58.25;95490.72;5049409;28;20041;-73
2022/05/22 08:10:26;;;;;;;6.50;3.05;;;;;;;16.48;60.07;95484.44;5055876;28;20045;-73
2022/05/22 08:12:51;;;;;;;6.15;2.80;;;;;;;16.44;59.93;95484.28;5069221;28;20107;-73
2022/05/22 08:15:20;;;;;;;6.18;2.60;;;;;;;16.52;60.00;95485.41;5049525;28;20044;-73
2022/05/22 08:17:46;;;;;;;7.18;2.65;;;;;;;16.87;56.63;95485.50;5049326;28;20076;-74
2022/05/22 08:20:16;;;;;;;5.63;2.70;;;;;;;16.71;57.40;95477.97;5048987;28;20163;-73
2022/05/22 08:22:45;;;;;;;7.32;3.00;;;;;;;16.65;56.19;95484.53;5061569;28;20044;-73
2022/05/22 08:25:17;;;;;;;7.10;2.40;;;;;;;16.66;55.96;95470.13;5068134;28;20069;-73
2022/05/22 08:27:43;;;;;;;4.82;2.50;;;;;;;16.85;55.17;95471.72;5067580;28;20032;-73
2022/05/22 08:30:12;;;;;;;4.55;2.67;;;;;;;17.02;53.96;95463.81;5068170;28;20040;-73
2022/05/22 08:32:39;;;;;;;7.25;2.42;;;;;;;17.33;54.04;95465.56;5049276;28;20395;-73
2022/05/22 08:35:07;;;;;;;4.00;2.50;;;;;;;17.34;54.59;95466.34;5050480;28;20052;-73
2022/05/22 08:37:33;;;;;;;5.45;2.40;;;;;;;17.33;53.64;95460.25;5053294;28;20041;-73
2022/05/22 08:39:59;;;;;;;5.82;2.20;;;;;;;17.62;52.40;95456.16;5052478;28;20071;-73
2022/05/22 08:42:43;;;;;;;8.20;2.75;;;;;;;17.64;54.52;95456.59;5073032;28;20044;-73
2022/05/22 08:45:24;;;;;;;5.80;2.80;;;;;;;17.45;54.14;95463.03;5072968;28;20041;-74
2022/05/22 08:47:53;;;;;;;11.07;2.97;;;;;;;17.36;54.23;95461.50;5068117;28;20431;-73
2022/05/22 08:50:19;;;;;;;10.15;2.40;;;;;;;17.40;53.95;95444.59;5052184;28;20041;-73
2022/05/22 08:52:54;;;;;;;4.85;2.70;;;;;;;17.54;54.47;95448.94;5053074;28;20049;-73
2022/05/22 09:01:21;;;;;;;5.95;2.35;;;;;;;17.76;50.99;95446.09;5052381;28;20045;-73
2022/05/22 09:03:55;;;;;;;4.40;2.40;;;;;;;17.70;53.04;95441.25;5052872;28;20503;-73
2022/05/22 09:06:30;;;;;;;5.18;2.40;;;;;;;18.00;50.70;95439.47;5052503;28;20045;-74
2022/05/22 09:08:55;;;;;;;5.53;2.53;;;;;;;18.14;50.83;95442.72;5052285;28;20630;-73
2022/05/22 09:11:46;;;;;;;5.63;2.50;;;;;;;18.49;50.60;95450.56;5052359;28;20052;-73
2022/05/22 09:14:17;;;;;;;6.35;2.38;;;;;;;18.62;50.49;95442.66;5052837;28;20041;-73
2022/05/22 09:16:49;;;;;;;5.00;2.47;;;;;;;18.80;49.70;95443.34;5059270;28;20045;-73
2022/05/22 09:19:33;;;;;;;5.88;2.53;;;;;;;18.96;50.60;95446.25;5052106;28;20052;-73
2022/05/22 09:22:11;;;;;;;6.30;2.55;;;;;;;19.06;50.04;95434.41;5052310;28;20111;-73
2022/05/22 09:24:42;;;;;;;4.75;2.30;;;;;;;19.15;49.38;95433.25;5052231;28;20045;-73
2022/05/22 09:27:40;;;;;;;4.85;2.30;;;;;;;19.05;49.16;95422.97;5052123;28;20162;-73
2022/05/22 09:30:36;;;;;;;4.18;2.58;;;;;;;18.89;49.82;95429.97;5050148;28;20115;-73
2022/05/22 09:33:22;;;;;;;6.95;2.97;;;;;;;18.83;50.30;95430.16;5067604;28;20037;-73
2022/05/22 09:36:19;;;;;;;7.18;2.78;;;;;;;18.91;50.27;95422.47;5052610;28;20037;-74
2022/05/22 09:39:16;;;;;;;4.57;2.50;;;;;;;19.09;49.42;95418.53;5050821;28;20048;-73
2022/05/22 09:42:03;;;;;;;5.72;2.92;;;;;;;19.04;49.37;95416.06;5061844;28;20060;-73
2022/05/22 09:44:47;;;;;;;5.07;2.40;;;;;;;19.03;48.54;95409.19;5051627;28;20121;-73
2022/05/22 09:47:24;;;;;;;5.47;2.73;;;;;;;19.23;49.06;95409.50;5051910;28;20041;-73
2022/05/22 09:50:07;;;;;;;6.35;2.97;;;;;;;19.42;48.68;95403.66;5051716;28;20041;-73
2022/05/22 09:52:54;;;;;;;6.22;2.50;;;;;;;19.67;47.14;95399.19;5052036;28;20068;-73
2022/05/22 09:55:45;;;;;;;4.65;2.45;;;;;;;19.68;47.13;95387.38;5052360;28;20037;-73
2022/05/22 09:58:26;;;;;;;4.90;2.80;;;;;;;19.77;47.77;95382.75;5054758;28;20418;-72
2022/05/22 10:00:56;;;;;;;7.47;2.83;;;;;;;19.90;46.95;95379.00;5065375;28;20045;-73
2022/05/22 10:03:41;;;;;;;4.93;2.70;;;;;;;20.10;46.66;95383.81;5052516;28;20131;-73
2022/05/22 10:06:37;;;;;;;3.20;2.33;;;;;;;20.08;45.33;95376.13;5052161;28;20052;-73
2022/05/22 10:09:33;;;;;;;5.38;2.80;;;;;;;20.62;45.49;95383.13;5052338;28;20059;-73
2022/05/22 10:12:38;;;;;;;4.40;2.45;;;;;;;20.79;42.71;95374.09;5052466;28;20052;-73
2022/05/22 10:15:24;;;;;;;6.65;2.63;;;;;;;20.92;42.06;95354.22;5052348;28;20037;-73
2022/05/22 10:17:53;;;;;;;5.10;2.30;;;;;;;21.38;42.55;95363.84;5052504;28;20055;-75
2022/05/22 10:20:44;;;;;;;4.85;2.65;;;;;;;21.95;42.49;95365.31;5060752;28;20115;-72
2022/05/22 10:23:43;;;;;;;7.45;2.50;;;;;;;22.14;38.24;95366.53;5070847;28;20075;-73
2022/05/22 10:26:17;;;;;;;3.83;2.30;;;;;;;22.26;38.10;95363.72;5069113;28;20045;-73
2022/05/22 10:28:54;;;;;;;3.90;2.30;;;;;;;22.16;36.34;95366.94;5051511;28;20037;-73
2022/05/22 10:31:38;;;;;;;5.32;2.22;;;;;;;22.28;37.57;95358.81;5051410;28;20045;-73
2022/05/22 10:34:08;;;;;;;;;;;;;;;22.75;35.25;95362.50;5051973;28;20049;-74
2022/05/22 10:36:43;;;;;;;5.80;2.60;;;;;;;22.58;36.31;95357.56;5051896;28;19920;-73
2022/05/22 10:39:13;;;;;;;5.72;2.60;;;;;;;22.68;36.44;95351.63;5051300;28;20128;-74
2022/05/22 10:44:57;;;;;;;4.57;2.30;;;;;;;23.48;34.63;95343.25;5052017;28;20039;-74
2022/05/22 10:47:32;;;;;;;6.47;2.10;;;;;;;23.64;33.37;95335.84;5051395;28;20044;-74
2022/05/22 10:50:14;;;;;;;3.95;2.33;;;;;;;23.41;32.54;95332.38;5051372;28;20486;-74
2022/05/22 10:52:39;;;;;;;3.95;2.10;;;;;;;23.74;34.49;95322.97;5051592;28;20044;-73
2022/05/22 10:55:30;;;;;;;5.05;2.92;;;;;;;24.41;35.76;95321.69;5058736;28;20048;-74
2022/05/22 10:57:58;;;;;;;5.63;2.83;;;;;;;23.64;36.73;95324.34;5054553;28;20045;-74
2022/05/22 11:00:25;;;;;;;4.90;2.45;;;;;;;24.01;34.94;95321.88;5048541;28;21029;-74
2022/05/22 11:02:50;;;;;;;8.43;2.50;;;;;;;23.75;35.12;95319.13;5050703;28;20053;-74
2022/05/22 11:05:24;;;;;;;4.63;2.58;;;;;;;24.58;35.27;95318.44;5050934;28;20041;-74
2022/05/22 11:07:53;;;;;;;4.28;2.90;;;;;;;24.45;34.60;95306.38;5063538;28;20043;-74
2022/05/22 11:10:26;;;;;;;6.15;2.53;;;;;;;24.86;33.12;95303.84;5069227;28;20090;-74
2022/05/22 11:13:04;;;;;;;7.55;2.60;;;;;;;24.87;33.91;95300.00;5071858;28;20103;-74
2022/05/22 11:15:33;;;;;;;5.20;2.55;;;;;;;25.99;32.13;95295.69;5055128;28;20037;-75
2022/05/22 11:18:10;;;;;;;8.95;2.55;;;;;;;26.61;30.21;95292.22;5051177;28;20048;-75
2022/05/22 11:21:01;;;;;;;4.25;2.40;;;;;;;27.37;27.02;95285.19;5050755;28;20056;-75
2022/05/22 11:23:32;;;;;;;3.45;2.35;;;;;;;27.51;27.98;95286.34;5061301;28;20119;-75
2022/05/22 11:26:03;;;;;;;4.40;2.20;;;;;;;25.71;28.76;95283.53;5050810;28;20094;-72
2022/05/22 11:28:32;;;;;;;3.83;2.40;;;;;;;25.86;28.35;95281.72;5050708;28;20048;-74
2022/05/22 11:31:36;;;;;;;3.85;2.20;;;;;;;25.47;27.23;95282.94;5050180;28;20441;-73
2022/05/22 11:34:12;;;;;;;3.92;2.17;;;;;;;26.00;27.57;95287.25;5053626;28;20052;-73
2022/05/22 11:37:00;;;;;;;3.17;2.08;;;;;;;26.25;28.15;95281.25;5069994;28;20127;-74
2022/05/22 11:39:53;;;;;;;4.22;2.53;;;;;;;26.99;27.31;95284.69;5062134;28;20040;-74
2022/05/22 11:42:32;;;;;;;4.57;2.08;;;;;;;26.43;27.35;95276.72;5050533;28;20128;-74
2022/05/22 11:45:19;;;;;;;6.03;2.10;;;;;;;27.93;26.51;95263.16;5049260;28;20071;-73
2022/05/22 11:47:56;;;;;;;3.70;2.22;;;;;;;27.38;25.74;95262.41;5050116;28;20492;-74
2022/05/22 11:50:40;;;;;;;3.50;2.00;;;;;;;27.52;25.38;95255.47;5052136;28;20041;-74
2022/05/22 11:53:24;;;;;;;4.90;2.65;;;;;;;28.20;24.83;95249.25;5071224;28;20044;-73
2022/05/22 11:56:16;;;;;;;5.78;2.15;;;;;;;28.59;25.69;95248.34;5071346;28;20040;-73
2022/05/22 11:59:02;;;;;;;3.17;1.85;;;;;;;26.32;25.65;95248.94;5050418;28;20048;-73
2022/05/22 12:01:41;;;;;;;3.60;2.38;;;;;;;27.74;26.11;95251.63;5061281;28;20516;-74
2022/05/22 12:04:41;;;;;;;4.47;2.30;;;;;;;28.17;25.83;95248.09;5071942;28;20045;-74
2022/05/22 12:07:28;;;;;;;4.13;2.50;;;;;;;26.86;25.56;95243.75;5071040;28;20056;-74
2022/05/22 12:10:06;;;;;;;5.75;2.28;;;;;;;28.58;24.36;95231.34;5061169;28;20037;-73
2022/05/22 12:12:39;;;;;;;6.28;2.40;;;;;;;28.90;24.54;95229.69;5056824;28;20124;-73